sensor_id;sensor_type;location;lat;lon;timestamp;temperature;humidity
17701;DHT22;8969;48.576;12.580;2023-12-04T00:00:41;-11.20;99.90
17701;DHT22;8969;48.576;12.580;2023-12-04T00:03:09;-11.30;99.90
17701;DHT22;8969;48.576;12.580;2023-12-04T00:05:37;-11.40;99.90
17701;DHT22;8969;48.576;12.580;2023-12-04T00:08:05;-11.30;99.90
17701;DHT22;8969;48.576;12.580;2023-12-04T00:10:33;-11.40;99.90
17701;DHT22;8969;48.576;12.580;2023-12-04T00:13:03;-11.30;99.90
17701;DHT22;8969;48.576;12.580;2023-12-04T00:15:31;-11.30;99.90
17701;DHT22;8969;48.576;12.580;2023-12-04T00:18:00;-11.30;99.90
17701;DHT22;8969;48.576;12.580;2023-12-04T00:20:28;-11.30;99.90
17701;DHT22;8969;48.576;12.580;2023-12-04T00:22:57;-11.40;99.90
17701;DHT22;8969;48.576;12.580;2023-12-04T00:25:26;-11.40;99.90
17701;DHT22;8969;48.576;12.580;2023-12-04T00:27:54;-11.40;99.90
17701;DHT22;8969;48.576;12.580;2023-12-04T00:30:23;-11.40;99.90
17701;DHT22;8969;48.576;12.580;2023-12-04T00:32:51;-11.30;99.90
17701;DHT22;8969;48.576;12.580;2023-12-04T00:35:19;-11.20;99.90
17701;DHT22;8969;48.576;12.580;2023-12-04T00:37:48;-11.10;99.90
17701;DHT22;8969;48.576;12.580;2023-12-04T00:40:16;-11.10;99.90
17701;DHT22;8969;48.576;12.580;2023-12-04T00:42:44;-11.20;99.90
17701;DHT22;8969;48.576;12.580;2023-12-04T00:45:12;-11.30;99.90
17701;DHT22;8969;48.576;12.580;2023-12-04T00:47:42;-11.40;99.90
17701;DHT22;8969;48.576;12.580;2023-12-04T00:50:10;-11.40;99.90
17701;DHT22;8969;48.576;12.580;2023-12-04T00:52:38;-11.40;99.90
17701;DHT22;8969;48.576;12.580;2023-12-04T00:55:07;-11.60;99.90
17701;DHT22;8969;48.576;12.580;2023-12-04T00:57:35;-11.50;99.90
17701;DHT22;8969;48.576;12.580;2023-12-04T01:00:04;-11.50;99.90
17701;DHT22;8969;48.576;12.580;2023-12-04T01:02:33;-11.50;99.90
17701;DHT22;8969;48.576;12.580;2023-12-04T01:05:04;-11.50;99.90
17701;DHT22;8969;48.576;12.580;2023-12-04T01:07:32;-11.60;99.90
17701;DHT22;8969;48.576;12.580;2023-12-04T01:10:00;-11.60;99.90
17701;DHT22;8969;48.576;12.580;2023-12-04T01:12:28;-11.50;99.90
17701;DHT22;8969;48.576;12.580;2023-12-04T01:14:56;-11.50;99.90
17701;DHT22;8969;48.576;12.580;2023-12-04T01:17:25;-11.60;99.90
17701;DHT22;8969;48.576;12.580;2023-12-04T01:19:53;-11.70;99.90
17701;DHT22;8969;48.576;12.580;2023-12-04T01:22:22;-11.80;99.90
17701;DHT22;8969;48.576;12.580;2023-12-04T01:24:51;-11.90;99.90
17701;DHT22;8969;48.576;12.580;2023-12-04T01:27:19;-11.80;99.90
17701;DHT22;8969;48.576;12.580;2023-12-04T01:29:48;-11.80;99.90
17701;DHT22;8969;48.576;12.580;2023-12-04T01:32:16;-11.90;99.90
17701;DHT22;8969;48.576;12.580;2023-12-04T01:34:44;-11.80;99.90
17701;DHT22;8969;48.576;12.580;2023-12-04T01:37:13;-11.90;99.90
17701;DHT22;8969;48.576;12.580;2023-12-04T01:39:43;-11.80;99.90
17701;DHT22;8969;48.576;12.580;2023-12-04T01:42:11;-11.80;99.90
17701;DHT22;8969;48.576;12.580;2023-12-04T01:44:40;-11.70;99.90
17701;DHT22;8969;48.576;12.580;2023-12-04T01:47:09;-11.80;99.90
17701;DHT22;8969;48.576;12.580;2023-12-04T01:49:39;-11.70;99.90
17701;DHT22;8969;48.576;12.580;2023-12-04T01:52:07;-11.70;99.90
17701;DHT22;8969;48.576;12.580;2023-12-04T01:54:36;-11.80;99.90
17701;DHT22;8969;48.576;12.580;2023-12-04T01:57:08;-11.90;99.90
17701;DHT22;8969;48.576;12.580;2023-12-04T01:59:37;-11.80;99.90
17701;DHT22;8969;48.576;12.580;2023-12-04T02:02:05;-11.80;99.90
17701;DHT22;8969;48.576;12.580;2023-12-04T02:04:38;-11.90;99.90
17701;DHT22;8969;48.576;12.580;2023-12-04T02:07:06;-11.60;99.90
17701;DHT22;8969;48.576;12.580;2023-12-04T02:09:36;-11.60;99.90
17701;DHT22;8969;48.576;12.580;2023-12-04T02:12:09;-11.60;99.90
17701;DHT22;8969;48.576;12.580;2023-12-04T02:14:37;-11.70;99.90
17701;DHT22;8969;48.576;12.580;2023-12-04T02:17:06;-11.70;99.90
17701;DHT22;8969;48.576;12.580;2023-12-04T02:19:36;-11.70;99.90
17701;DHT22;8969;48.576;12.580;2023-12-04T02:22:03;-11.50;99.90
17701;DHT22;8969;48.576;12.580;2023-12-04T02:24:33;-11.30;99.90
17701;DHT22;8969;48.576;12.580;2023-12-04T02:27:07;-10.80;99.90
17701;DHT22;8969;48.576;12.580;2023-12-04T02:29:40;-11.10;99.90
17701;DHT22;8969;48.576;12.580;2023-12-04T02:32:11;-11.40;99.90
17701;DHT22;8969;48.576;12.580;2023-12-04T02:34:43;-11.50;99.90
17701;DHT22;8969;48.576;12.580;2023-12-04T02:37:13;-11.50;99.90
17701;DHT22;8969;48.576;12.580;2023-12-04T02:39:44;-11.50;99.90
17701;DHT22;8969;48.576;12.580;2023-12-04T02:42:12;-11.20;99.90
17701;DHT22;8969;48.576;12.580;2023-12-04T02:44:41;-11.20;99.90
17701;DHT22;8969;48.576;12.580;2023-12-04T02:47:10;-11.20;99.90
17701;DHT22;8969;48.576;12.580;2023-12-04T02:49:38;-11.00;99.90
17701;DHT22;8969;48.576;12.580;2023-12-04T02:52:06;-10.90;99.90
17701;DHT22;8969;48.576;12.580;2023-12-04T02:54:34;-11.20;99.90
17701;DHT22;8969;48.576;12.580;2023-12-04T02:57:04;-11.30;99.90
17701;DHT22;8969;48.576;12.580;2023-12-04T02:59:32;-11.60;99.90
17701;DHT22;8969;48.576;12.580;2023-12-04T03:02:00;-11.70;99.90
17701;DHT22;8969;48.576;12.580;2023-12-04T03:04:29;-11.60;99.90
17701;DHT22;8969;48.576;12.580;2023-12-04T03:06:58;-11.50;99.90
17701;DHT22;8969;48.576;12.580;2023-12-04T03:09:26;-11.30;99.90
17701;DHT22;8969;48.576;12.580;2023-12-04T03:12:16;-10.60;99.90
17701;DHT22;8969;48.576;12.580;2023-12-04T03:14:45;-10.50;99.90
17701;DHT22;8969;48.576;12.580;2023-12-04T03:17:13;-10.40;99.90
17701;DHT22;8969;48.576;12.580;2023-12-04T03:19:41;-10.00;99.90
17701;DHT22;8969;48.576;12.580;2023-12-04T03:22:11;-10.00;99.90
17701;DHT22;8969;48.576;12.580;2023-12-04T03:24:40;-10.10;99.90
17701;DHT22;8969;48.576;12.580;2023-12-04T03:27:08;-10.20;99.90
17701;DHT22;8969;48.576;12.580;2023-12-04T03:29:39;-10.00;99.90
17701;DHT22;8969;48.576;12.580;2023-12-04T03:32:07;-9.90;99.90
17701;DHT22;8969;48.576;12.580;2023-12-04T03:34:35;-9.90;99.90
17701;DHT22;8969;48.576;12.580;2023-12-04T03:37:03;-9.80;99.90
17701;DHT22;8969;48.576;12.580;2023-12-04T03:39:31;-9.90;99.90
17701;DHT22;8969;48.576;12.580;2023-12-04T03:42:00;-10.10;99.90
17701;DHT22;8969;48.576;12.580;2023-12-04T03:44:28;-10.30;99.90
17701;DHT22;8969;48.576;12.580;2023-12-04T03:46:58;-10.30;99.90
17701;DHT22;8969;48.576;12.580;2023-12-04T03:49:26;-10.40;99.90
17701;DHT22;8969;48.576;12.580;2023-12-04T03:51:55;-10.20;99.90
17701;DHT22;8969;48.576;12.580;2023-12-04T03:54:23;-10.00;99.90
17701;DHT22;8969;48.576;12.580;2023-12-04T03:56:52;-9.50;99.90
17701;DHT22;8969;48.576;12.580;2023-12-04T03:59:20;-9.00;99.90
17701;DHT22;8969;48.576;12.580;2023-12-04T04:01:49;-8.70;99.90
17701;DHT22;8969;48.576;12.580;2023-12-04T04:04:18;-8.40;99.90
17701;DHT22;8969;48.576;12.580;2023-12-04T04:06:47;-8.40;99.90
17701;DHT22;8969;48.576;12.580;2023-12-04T04:09:15;-8.60;99.90
17701;DHT22;8969;48.576;12.580;2023-12-04T04:11:47;-8.60;99.90
17701;DHT22;8969;48.576;12.580;2023-12-04T04:14:15;-9.00;99.90
17701;DHT22;8969;48.576;12.580;2023-12-04T04:16:42;-9.10;99.90
17701;DHT22;8969;48.576;12.580;2023-12-04T04:19:11;-8.90;99.90
17701;DHT22;8969;48.576;12.580;2023-12-04T04:21:41;-8.80;99.90
17701;DHT22;8969;48.576;12.580;2023-12-04T04:24:10;-8.80;99.90
17701;DHT22;8969;48.576;12.580;2023-12-04T04:26:39;-9.10;99.90
17701;DHT22;8969;48.576;12.580;2023-12-04T04:29:10;-9.20;99.90
17701;DHT22;8969;48.576;12.580;2023-12-04T04:31:39;-9.30;99.90
17701;DHT22;8969;48.576;12.580;2023-12-04T04:34:07;-9.30;99.90
17701;DHT22;8969;48.576;12.580;2023-12-04T04:36:36;-9.30;99.90
17701;DHT22;8969;48.576;12.580;2023-12-04T04:39:05;-9.00;99.90
17701;DHT22;8969;48.576;12.580;2023-12-04T04:41:33;-8.70;99.90
17701;DHT22;8969;48.576;12.580;2023-12-04T04:44:02;-8.70;99.90
17701;DHT22;8969;48.576;12.580;2023-12-04T04:46:30;-8.90;99.90
17701;DHT22;8969;48.576;12.580;2023-12-04T04:48:58;-9.00;99.90
17701;DHT22;8969;48.576;12.580;2023-12-04T04:51:28;-9.00;99.90
17701;DHT22;8969;48.576;12.580;2023-12-04T04:53:56;-9.00;99.90
17701;DHT22;8969;48.576;12.580;2023-12-04T04:56:27;-9.10;99.90
17701;DHT22;8969;48.576;12.580;2023-12-04T04:58:55;-9.20;99.90
17701;DHT22;8969;48.576;12.580;2023-12-04T05:01:23;-9.20;99.90
17701;DHT22;8969;48.576;12.580;2023-12-04T05:03:51;-9.10;99.90
17701;DHT22;8969;48.576;12.580;2023-12-04T05:06:21;-9.20;99.90
17701;DHT22;8969;48.576;12.580;2023-12-04T05:08:51;-9.30;99.90
17701;DHT22;8969;48.576;12.580;2023-12-04T05:11:21;-9.20;99.90
17701;DHT22;8969;48.576;12.580;2023-12-04T05:13:51;-9.30;99.90
17701;DHT22;8969;48.576;12.580;2023-12-04T05:16:19;-9.20;99.90
17701;DHT22;8969;48.576;12.580;2023-12-04T05:18:47;-9.30;99.90
17701;DHT22;8969;48.576;12.580;2023-12-04T05:21:17;-9.00;99.90
17701;DHT22;8969;48.576;12.580;2023-12-04T05:23:45;-8.70;99.90
17701;DHT22;8969;48.576;12.580;2023-12-04T05:26:13;-8.60;99.90
17701;DHT22;8969;48.576;12.580;2023-12-04T05:28:41;-8.40;99.90
17701;DHT22;8969;48.576;12.580;2023-12-04T05:31:11;-8.30;99.90
17701;DHT22;8969;48.576;12.580;2023-12-04T05:33:39;-8.10;99.90
17701;DHT22;8969;48.576;12.580;2023-12-04T05:36:12;-8.20;99.90
17701;DHT22;8969;48.576;12.580;2023-12-04T05:38:42;-8.10;99.90
17701;DHT22;8969;48.576;12.580;2023-12-04T05:41:10;-7.90;99.90
17701;DHT22;8969;48.576;12.580;2023-12-04T05:43:38;-8.20;99.90
17701;DHT22;8969;48.576;12.580;2023-12-04T05:46:07;-8.00;99.90
17701;DHT22;8969;48.576;12.580;2023-12-04T05:48:36;-7.80;99.90
17701;DHT22;8969;48.576;12.580;2023-12-04T05:51:05;-7.70;99.90
17701;DHT22;8969;48.576;12.580;2023-12-04T05:53:34;-7.70;99.90
17701;DHT22;8969;48.576;12.580;2023-12-04T05:56:02;-7.80;99.90
17701;DHT22;8969;48.576;12.580;2023-12-04T05:58:32;-7.70;99.90
17701;DHT22;8969;48.576;12.580;2023-12-04T06:01:00;-7.70;99.90
17701;DHT22;8969;48.576;12.580;2023-12-04T06:03:29;-7.60;99.90
17701;DHT22;8969;48.576;12.580;2023-12-04T06:06:00;-7.50;99.90
17701;DHT22;8969;48.576;12.580;2023-12-04T06:08:32;-7.60;99.90
17701;DHT22;8969;48.576;12.580;2023-12-04T06:11:02;-7.70;99.90
17701;DHT22;8969;48.576;12.580;2023-12-04T06:13:31;-7.70;99.90
17701;DHT22;8969;48.576;12.580;2023-12-04T06:16:00;-7.80;99.90
17701;DHT22;8969;48.576;12.580;2023-12-04T06:18:30;-7.70;99.90
17701;DHT22;8969;48.576;12.580;2023-12-04T06:21:00;-7.70;99.90
17701;DHT22;8969;48.576;12.580;2023-12-04T06:23:32;-7.70;99.90
17701;DHT22;8969;48.576;12.580;2023-12-04T06:26:01;-7.50;99.90
17701;DHT22;8969;48.576;12.580;2023-12-04T06:28:30;-7.50;99.90
17701;DHT22;8969;48.576;12.580;2023-12-04T06:31:10;-7.40;99.90
17701;DHT22;8969;48.576;12.580;2023-12-04T06:33:40;-7.30;99.90
17701;DHT22;8969;48.576;12.580;2023-12-04T06:36:11;-7.40;99.90
17701;DHT22;8969;48.576;12.580;2023-12-04T06:38:44;-7.30;99.90
17701;DHT22;8969;48.576;12.580;2023-12-04T06:41:15;-7.30;99.90
17701;DHT22;8969;48.576;12.580;2023-12-04T06:43:45;-7.20;99.90
17701;DHT22;8969;48.576;12.580;2023-12-04T06:46:17;-7.10;99.90
17701;DHT22;8969;48.576;12.580;2023-12-04T06:48:48;-7.00;99.90
17701;DHT22;8969;48.576;12.580;2023-12-04T06:51:22;-7.00;99.90
17701;DHT22;8969;48.576;12.580;2023-12-04T06:53:51;-7.00;99.90
17701;DHT22;8969;48.576;12.580;2023-12-04T06:56:20;-7.10;99.90
17701;DHT22;8969;48.576;12.580;2023-12-04T06:58:48;-7.10;99.90
17701;DHT22;8969;48.576;12.580;2023-12-04T07:01:16;-7.10;99.90
17701;DHT22;8969;48.576;12.580;2023-12-04T07:03:48;-7.10;99.90
17701;DHT22;8969;48.576;12.580;2023-12-04T07:06:22;-7.10;99.90
17701;DHT22;8969;48.576;12.580;2023-12-04T07:08:50;-7.10;99.90
17701;DHT22;8969;48.576;12.580;2023-12-04T07:11:18;-7.10;99.90
17701;DHT22;8969;48.576;12.580;2023-12-04T07:13:48;-7.10;99.90
17701;DHT22;8969;48.576;12.580;2023-12-04T07:16:16;-6.90;99.90
17701;DHT22;8969;48.576;12.580;2023-12-04T07:18:45;-6.80;99.90
17701;DHT22;8969;48.576;12.580;2023-12-04T07:21:14;-6.70;99.90
17701;DHT22;8969;48.576;12.580;2023-12-04T07:23:45;-6.60;99.90
17701;DHT22;8969;48.576;12.580;2023-12-04T07:26:13;-6.60;99.90
17701;DHT22;8969;48.576;12.580;2023-12-04T07:28:41;-6.50;99.90
17701;DHT22;8969;48.576;12.580;2023-12-04T07:31:10;-6.40;99.90
17701;DHT22;8969;48.576;12.580;2023-12-04T07:33:40;-6.40;99.90
17701;DHT22;8969;48.576;12.580;2023-12-04T07:36:09;-6.30;99.90
17701;DHT22;8969;48.576;12.580;2023-12-04T07:38:37;-6.30;99.90
17701;DHT22;8969;48.576;12.580;2023-12-04T07:41:08;-6.20;99.90
17701;DHT22;8969;48.576;12.580;2023-12-04T07:43:36;-6.20;99.90
17701;DHT22;8969;48.576;12.580;2023-12-04T07:46:04;-6.20;99.90
17701;DHT22;8969;48.576;12.580;2023-12-04T07:48:33;-6.30;99.90
17701;DHT22;8969;48.576;12.580;2023-12-04T07:51:01;-6.30;99.90
17701;DHT22;8969;48.576;12.580;2023-12-04T07:53:30;-6.20;99.90
17701;DHT22;8969;48.576;12.580;2023-12-04T07:56:01;-6.10;99.90
17701;DHT22;8969;48.576;12.580;2023-12-04T07:58:32;-6.10;99.90
17701;DHT22;8969;48.576;12.580;2023-12-04T08:01:00;-5.90;99.90
17701;DHT22;8969;48.576;12.580;2023-12-04T08:03:31;-5.80;99.90
17701;DHT22;8969;48.576;12.580;2023-12-04T08:05:59;-5.70;99.90
17701;DHT22;8969;48.576;12.580;2023-12-04T08:08:27;-5.70;99.90
17701;DHT22;8969;48.576;12.580;2023-12-04T08:10:57;-5.70;99.90
17701;DHT22;8969;48.576;12.580;2023-12-04T08:13:25;-5.60;99.90
17701;DHT22;8969;48.576;12.580;2023-12-04T08:15:54;-5.50;99.90
17701;DHT22;8969;48.576;12.580;2023-12-04T08:18:24;-5.40;99.90
17701;DHT22;8969;48.576;12.580;2023-12-04T08:20:53;-5.50;99.90
17701;DHT22;8969;48.576;12.580;2023-12-04T08:23:22;-5.50;99.90
17701;DHT22;8969;48.576;12.580;2023-12-04T08:25:50;-5.50;99.90
17701;DHT22;8969;48.576;12.580;2023-12-04T08:28:19;-5.40;99.90
17701;DHT22;8969;48.576;12.580;2023-12-04T08:30:47;-5.40;99.90
17701;DHT22;8969;48.576;12.580;2023-12-04T08:33:17;-5.30;99.90
17701;DHT22;8969;48.576;12.580;2023-12-04T08:35:47;-5.20;99.90
17701;DHT22;8969;48.576;12.580;2023-12-04T08:38:15;-5.30;99.90
17701;DHT22;8969;48.576;12.580;2023-12-04T08:40:44;-5.30;99.90
17701;DHT22;8969;48.576;12.580;2023-12-04T08:43:22;-5.30;99.90
17701;DHT22;8969;48.576;12.580;2023-12-04T08:50:03;-5.10;99.90
17701;DHT22;8969;48.576;12.580;2023-12-04T08:53:15;-5.10;99.90
17701;DHT22;8969;48.576;12.580;2023-12-04T08:57:07;-5.00;99.90
17701;DHT22;8969;48.576;12.580;2023-12-04T08:59:58;-4.70;99.90
17701;DHT22;8969;48.576;12.580;2023-12-04T09:03:49;-4.50;99.90
17701;DHT22;8969;48.576;12.580;2023-12-04T09:07:51;-4.50;99.90
17701;DHT22;8969;48.576;12.580;2023-12-04T09:11:30;-4.30;99.90
17701;DHT22;8969;48.576;12.580;2023-12-04T09:16:46;-4.40;99.90
17701;DHT22;8969;48.576;12.580;2023-12-04T09:19:14;-4.40;99.90
17701;DHT22;8969;48.576;12.580;2023-12-04T09:21:42;-4.40;99.90
17701;DHT22;8969;48.576;12.580;2023-12-04T09:24:12;-4.40;99.90
17701;DHT22;8969;48.576;12.580;2023-12-04T09:26:42;-4.40;99.90
17701;DHT22;8969;48.576;12.580;2023-12-04T09:29:11;-4.40;99.90
17701;DHT22;8969;48.576;12.580;2023-12-04T09:31:40;-4.40;99.90
17701;DHT22;8969;48.576;12.580;2023-12-04T09:34:09;-4.20;99.90
17701;DHT22;8969;48.576;12.580;2023-12-04T09:36:37;-4.20;99.90
17701;DHT22;8969;48.576;12.580;2023-12-04T09:39:05;-4.20;99.90
17701;DHT22;8969;48.576;12.580;2023-12-04T09:41:35;-4.20;99.90
17701;DHT22;8969;48.576;12.580;2023-12-04T09:44:04;-4.10;99.90
17701;DHT22;8969;48.576;12.580;2023-12-04T09:46:33;-4.10;99.90
17701;DHT22;8969;48.576;12.580;2023-12-04T09:49:02;-4.00;99.90
17701;DHT22;8969;48.576;12.580;2023-12-04T09:51:33;-3.90;99.90
17701;DHT22;8969;48.576;12.580;2023-12-04T09:54:03;-3.80;99.90
17701;DHT22;8969;48.576;12.580;2023-12-04T09:56:34;-3.90;99.90
17701;DHT22;8969;48.576;12.580;2023-12-04T09:59:05;-3.80;99.90
17701;DHT22;8969;48.576;12.580;2023-12-04T10:01:36;-3.60;99.90
17701;DHT22;8969;48.576;12.580;2023-12-04T10:04:04;-3.50;99.90
17701;DHT22;8969;48.576;12.580;2023-12-04T10:06:33;-3.50;99.90
17701;DHT22;8969;48.576;12.580;2023-12-04T10:09:04;-3.80;99.90
17701;DHT22;8969;48.576;12.580;2023-12-04T10:11:41;-3.70;99.90
17701;DHT22;8969;48.576;12.580;2023-12-04T10:14:15;-3.60;99.90
17701;DHT22;8969;48.576;12.580;2023-12-04T10:16:43;-3.50;99.90
17701;DHT22;8969;48.576;12.580;2023-12-04T10:19:16;-3.30;99.90
17701;DHT22;8969;48.576;12.580;2023-12-04T10:21:46;-3.20;99.90
17701;DHT22;8969;48.576;12.580;2023-12-04T10:24:28;-3.20;99.90
17701;DHT22;8969;48.576;12.580;2023-12-04T10:26:58;-3.40;99.90
17701;DHT22;8969;48.576;12.580;2023-12-04T10:29:28;-3.20;99.90
17701;DHT22;8969;48.576;12.580;2023-12-04T10:31:59;-3.20;99.90
17701;DHT22;8969;48.576;12.580;2023-12-04T10:34:30;-3.10;99.90
17701;DHT22;8969;48.576;12.580;2023-12-04T10:37:03;-3.20;99.90
17701;DHT22;8969;48.576;12.580;2023-12-04T10:39:45;-3.10;99.90
17701;DHT22;8969;48.576;12.580;2023-12-04T10:42:25;-3.10;99.90
17701;DHT22;8969;48.576;12.580;2023-12-04T10:44:55;-3.00;99.90
17701;DHT22;8969;48.576;12.580;2023-12-04T10:47:26;-3.00;99.90
17701;DHT22;8969;48.576;12.580;2023-12-04T10:49:54;-3.00;99.90
17701;DHT22;8969;48.576;12.580;2023-12-04T10:52:23;-3.00;99.90
17701;DHT22;8969;48.576;12.580;2023-12-04T10:54:52;-2.90;99.90
17701;DHT22;8969;48.576;12.580;2023-12-04T10:57:25;-2.90;99.90
17701;DHT22;8969;48.576;12.580;2023-12-04T10:59:57;-2.80;99.90
17701;DHT22;8969;48.576;12.580;2023-12-04T11:02:27;-2.70;99.90
17701;DHT22;8969;48.576;12.580;2023-12-04T11:05:04;-2.70;99.90
17701;DHT22;8969;48.576;12.580;2023-12-04T11:07:37;-2.80;99.90
17701;DHT22;8969;48.576;12.580;2023-12-04T11:10:29;-2.70;99.90
17701;DHT22;8969;48.576;12.580;2023-12-04T11:13:05;-2.60;99.90
17701;DHT22;8969;48.576;12.580;2023-12-04T11:15:40;-2.60;99.90
17701;DHT22;8969;48.576;12.580;2023-12-04T11:18:13;-2.50;99.90
17701;DHT22;8969;48.576;12.580;2023-12-04T11:20:51;-2.60;99.90
17701;DHT22;8969;48.576;12.580;2023-12-04T11:23:21;-2.70;99.90
17701;DHT22;8969;48.576;12.580;2023-12-04T11:25:50;-2.80;99.90
17701;DHT22;8969;48.576;12.580;2023-12-04T11:28:23;-2.70;99.90
17701;DHT22;8969;48.576;12.580;2023-12-04T11:30:57;-2.60;99.90
17701;DHT22;8969;48.576;12.580;2023-12-04T11:33:36;-2.40;99.90
17701;DHT22;8969;48.576;12.580;2023-12-04T11:36:08;-2.30;99.90
17701;DHT22;8969;48.576;12.580;2023-12-04T11:38:44;-2.20;99.90
17701;DHT22;8969;48.576;12.580;2023-12-04T11:41:17;-2.30;99.90
17701;DHT22;8969;48.576;12.580;2023-12-04T11:43:56;-2.20;99.90
17701;DHT22;8969;48.576;12.580;2023-12-04T11:46:27;-2.20;99.90
17701;DHT22;8969;48.576;12.580;2023-12-04T11:49:27;-2.20;99.90
17701;DHT22;8969;48.576;12.580;2023-12-04T11:51:57;-2.30;99.90
17701;DHT22;8969;48.576;12.580;2023-12-04T11:54:28;-2.20;99.90
17701;DHT22;8969;48.576;12.580;2023-12-04T11:57:20;-2.50;99.90
17701;DHT22;8969;48.576;12.580;2023-12-04T12:00:11;-2.60;99.90
17701;DHT22;8969;48.576;12.580;2023-12-04T12:02:59;-2.70;99.90
17701;DHT22;8969;48.576;12.580;2023-12-04T12:05:49;-2.50;99.90
17701;DHT22;8969;48.576;12.580;2023-12-04T12:08:22;-2.30;99.90
17701;DHT22;8969;48.576;12.580;2023-12-04T12:10:51;-2.40;99.90
17701;DHT22;8969;48.576;12.580;2023-12-04T12:13:22;-2.40;99.90
17701;DHT22;8969;48.576;12.580;2023-12-04T12:15:55;-2.50;99.90
17701;DHT22;8969;48.576;12.580;2023-12-04T12:18:28;-2.40;99.90
17701;DHT22;8969;48.576;12.580;2023-12-04T12:20:58;-2.40;99.90
17701;DHT22;8969;48.576;12.580;2023-12-04T12:23:27;-2.30;99.90
17701;DHT22;8969;48.576;12.580;2023-12-04T12:26:03;-2.30;99.90
17701;DHT22;8969;48.576;12.580;2023-12-04T12:28:32;-2.30;99.90
17701;DHT22;8969;48.576;12.580;2023-12-04T12:31:07;-2.40;99.90
17701;DHT22;8969;48.576;12.580;2023-12-04T12:33:38;-2.50;99.90
17701;DHT22;8969;48.576;12.580;2023-12-04T12:36:08;-2.40;99.90
17701;DHT22;8969;48.576;12.580;2023-12-04T12:38:37;-2.40;99.90
17701;DHT22;8969;48.576;12.580;2023-12-04T12:41:07;-2.30;99.90
17701;DHT22;8969;48.576;12.580;2023-12-04T12:43:40;-2.20;99.90
17701;DHT22;8969;48.576;12.580;2023-12-04T12:46:10;-2.20;99.90
17701;DHT22;8969;48.576;12.580;2023-12-04T12:48:39;-2.20;99.90
17701;DHT22;8969;48.576;12.580;2023-12-04T12:51:09;-2.20;99.90
17701;DHT22;8969;48.576;12.580;2023-12-04T12:53:39;-2.30;99.90
17701;DHT22;8969;48.576;12.580;2023-12-04T12:56:10;-2.30;99.90
17701;DHT22;8969;48.576;12.580;2023-12-04T12:58:42;-2.30;99.90
17701;DHT22;8969;48.576;12.580;2023-12-04T13:01:13;-2.50;99.90
17701;DHT22;8969;48.576;12.580;2023-12-04T13:03:45;-2.40;99.90
17701;DHT22;8969;48.576;12.580;2023-12-04T13:06:15;-2.40;99.90
17701;DHT22;8969;48.576;12.580;2023-12-04T13:08:44;-2.40;99.90
17701;DHT22;8969;48.576;12.580;2023-12-04T13:11:15;-2.30;99.90
17701;DHT22;8969;48.576;12.580;2023-12-04T13:13:44;-2.20;99.90
17701;DHT22;8969;48.576;12.580;2023-12-04T13:16:15;-2.10;99.90
17701;DHT22;8969;48.576;12.580;2023-12-04T13:18:43;-2.10;99.90
17701;DHT22;8969;48.576;12.580;2023-12-04T13:21:14;-2.30;99.90
17701;DHT22;8969;48.576;12.580;2023-12-04T13:23:44;-2.20;99.90
17701;DHT22;8969;48.576;12.580;2023-12-04T13:26:12;-2.20;99.90
17701;DHT22;8969;48.576;12.580;2023-12-04T13:28:43;-2.40;99.90
17701;DHT22;8969;48.576;12.580;2023-12-04T13:31:17;-2.40;99.90
17701;DHT22;8969;48.576;12.580;2023-12-04T13:33:47;-2.30;99.90
17701;DHT22;8969;48.576;12.580;2023-12-04T13:36:15;-2.30;99.90
17701;DHT22;8969;48.576;12.580;2023-12-04T13:38:47;-2.30;99.90
17701;DHT22;8969;48.576;12.580;2023-12-04T13:41:16;-2.30;99.90
17701;DHT22;8969;48.576;12.580;2023-12-04T13:44:02;-2.20;99.90
17701;DHT22;8969;48.576;12.580;2023-12-04T13:46:34;-2.20;99.90
17701;DHT22;8969;48.576;12.580;2023-12-04T13:49:04;-2.20;99.90
17701;DHT22;8969;48.576;12.580;2023-12-04T13:51:35;-2.20;99.90
17701;DHT22;8969;48.576;12.580;2023-12-04T13:54:08;-2.20;99.90
17701;DHT22;8969;48.576;12.580;2023-12-04T13:56:49;-2.30;99.90
17701;DHT22;8969;48.576;12.580;2023-12-04T13:59:23;-2.30;99.90
17701;DHT22;8969;48.576;12.580;2023-12-04T14:01:53;-2.40;99.90
17701;DHT22;8969;48.576;12.580;2023-12-04T14:04:29;-2.40;99.90
17701;DHT22;8969;48.576;12.580;2023-12-04T14:06:59;-2.50;99.90
17701;DHT22;8969;48.576;12.580;2023-12-04T14:09:31;-2.60;99.90
17701;DHT22;8969;48.576;12.580;2023-12-04T14:12:03;-2.70;99.90
17701;DHT22;8969;48.576;12.580;2023-12-04T14:14:32;-2.80;99.90
17701;DHT22;8969;48.576;12.580;2023-12-04T14:17:03;-2.80;99.90
17701;DHT22;8969;48.576;12.580;2023-12-04T14:19:34;-2.90;99.90
17701;DHT22;8969;48.576;12.580;2023-12-04T14:22:03;-2.90;99.90
17701;DHT22;8969;48.576;12.580;2023-12-04T14:24:35;-3.00;99.90
17701;DHT22;8969;48.576;12.580;2023-12-04T14:27:05;-3.00;99.90
17701;DHT22;8969;48.576;12.580;2023-12-04T14:29:33;-3.10;99.90
17701;DHT22;8969;48.576;12.580;2023-12-04T14:32:04;-3.10;99.90
17701;DHT22;8969;48.576;12.580;2023-12-04T14:34:32;-3.10;99.90
17701;DHT22;8969;48.576;12.580;2023-12-04T14:37:02;-3.10;99.90
17701;DHT22;8969;48.576;12.580;2023-12-04T14:39:32;-3.30;99.90
17701;DHT22;8969;48.576;12.580;2023-12-04T14:42:00;-3.30;99.90
17701;DHT22;8969;48.576;12.580;2023-12-04T14:44:29;-3.30;99.90
17701;DHT22;8969;48.576;12.580;2023-12-04T14:46:58;-3.30;99.90
17701;DHT22;8969;48.576;12.580;2023-12-04T14:49:28;-3.40;99.90
17701;DHT22;8969;48.576;12.580;2023-12-04T14:51:57;-3.40;99.90
17701;DHT22;8969;48.576;12.580;2023-12-04T14:54:28;-3.60;99.90
17701;DHT22;8969;48.576;12.580;2023-12-04T14:57:09;-3.70;99.90
17701;DHT22;8969;48.576;12.580;2023-12-04T15:00:17;-3.70;99.90
17701;DHT22;8969;48.576;12.580;2023-12-04T15:02:59;-3.80;99.90
17701;DHT22;8969;48.576;12.580;2023-12-04T15:06:05;-3.90;99.90
17701;DHT22;8969;48.576;12.580;2023-12-04T15:08:48;-3.90;99.90
17701;DHT22;8969;48.576;12.580;2023-12-04T15:11:34;-3.90;99.90
17701;DHT22;8969;48.576;12.580;2023-12-04T15:14:30;-3.90;99.90
17701;DHT22;8969;48.576;12.580;2023-12-04T15:17:07;-4.00;99.90
17701;DHT22;8969;48.576;12.580;2023-12-04T15:19:44;-4.10;99.90
17701;DHT22;8969;48.576;12.580;2023-12-04T15:22:44;-4.00;99.90
17701;DHT22;8969;48.576;12.580;2023-12-04T15:25:11;-4.10;99.90
17701;DHT22;8969;48.576;12.580;2023-12-04T15:27:40;-4.20;99.90
17701;DHT22;8969;48.576;12.580;2023-12-04T15:30:09;-4.20;99.90
17701;DHT22;8969;48.576;12.580;2023-12-04T15:32:39;-4.20;99.90
17701;DHT22;8969;48.576;12.580;2023-12-04T15:35:07;-4.30;99.90
17701;DHT22;8969;48.576;12.580;2023-12-04T15:37:39;-4.40;99.90
17701;DHT22;8969;48.576;12.580;2023-12-04T15:40:08;-4.40;99.90
17701;DHT22;8969;48.576;12.580;2023-12-04T15:42:38;-4.50;99.90
17701;DHT22;8969;48.576;12.580;2023-12-04T15:45:06;-4.50;99.90
17701;DHT22;8969;48.576;12.580;2023-12-04T15:47:34;-4.50;99.90
17701;DHT22;8969;48.576;12.580;2023-12-04T15:50:02;-4.50;99.90
17701;DHT22;8969;48.576;12.580;2023-12-04T15:52:32;-4.50;99.90
17701;DHT22;8969;48.576;12.580;2023-12-04T15:54:59;-4.60;99.90
17701;DHT22;8969;48.576;12.580;2023-12-04T15:57:33;-4.70;99.90
17701;DHT22;8969;48.576;12.580;2023-12-04T16:00:01;-4.70;99.90
17701;DHT22;8969;48.576;12.580;2023-12-04T16:02:38;-4.80;99.90